sensor_id;sensor_type;location;lat;lon;timestamp;temperature;humidity
65040;HTU21D;51606;45.000;38.612;2023-02-28T00:00:36;11.49;50.44
65040;HTU21D;51606;45.000;38.612;2023-02-28T00:03:03;11.47;50.48
65040;HTU21D;51606;45.000;38.612;2023-02-28T00:05:29;11.41;50.57
65040;HTU21D;51606;45.000;38.612;2023-02-28T00:07:56;11.33;50.75
65040;HTU21D;51606;45.000;38.612;2023-02-28T00:10:25;11.19;50.95
65040;HTU21D;51606;45.000;38.612;2023-02-28T00:12:53;11.08;51.16
65040;HTU21D;51606;45.000;38.612;2023-02-28T00:15:20;10.98;51.28
65040;HTU21D;51606;45.000;38.612;2023-02-28T00:17:49;10.89;51.40
65040;HTU21D;51606;45.000;38.612;2023-02-28T00:20:15;10.83;51.53
65040;HTU21D;51606;45.000;38.612;2023-02-28T00:22:45;10.78;51.63
65040;HTU21D;51606;45.000;38.612;2023-02-28T00:25:14;10.74;51.66
65040;HTU21D;51606;45.000;38.612;2023-02-28T00:27:41;10.69;51.69
65040;HTU21D;51606;45.000;38.612;2023-02-28T00:30:10;10.64;51.75
65040;HTU21D;51606;45.000;38.612;2023-02-28T00:32:37;10.60;51.79
65040;HTU21D;51606;45.000;38.612;2023-02-28T00:35:05;10.55;51.86
65040;HTU21D;51606;45.000;38.612;2023-02-28T00:37:32;10.51;51.93
65040;HTU21D;51606;45.000;38.612;2023-02-28T00:39:58;10.44;51.96
65040;HTU21D;51606;45.000;38.612;2023-02-28T00:42:27;10.42;52.02
65040;HTU21D;51606;45.000;38.612;2023-02-28T00:44:53;10.38;52.02
65040;HTU21D;51606;45.000;38.612;2023-02-28T03:42:46;9.42;53.74
65040;HTU21D;51606;45.000;38.612;2023-02-28T03:45:19;9.46;53.72
65040;HTU21D;51606;45.000;38.612;2023-02-28T03:47:58;9.49;53.69
65040;HTU21D;51606;45.000;38.612;2023-02-28T03:50:36;9.51;53.71
65040;HTU21D;51606;45.000;38.612;2023-02-28T03:53:11;9.52;53.72
65040;HTU21D;51606;45.000;38.612;2023-02-28T03:55:45;9.55;53.74
65040;HTU21D;51606;45.000;38.612;2023-02-28T04:01:19;9.55;53.84
65040;HTU21D;51606;45.000;38.612;2023-02-28T04:03:47;9.51;53.84
65040;HTU21D;51606;45.000;38.612;2023-02-28T04:06:21;9.53;53.96
65040;HTU21D;51606;45.000;38.612;2023-02-28T04:08:48;9.52;53.99
65040;HTU21D;51606;45.000;38.612;2023-02-28T04:13:44;9.56;54.02
65040;HTU21D;51606;45.000;38.612;2023-02-28T04:16:10;9.62;54.03
65040;HTU21D;51606;45.000;38.612;2023-02-28T04:18:42;9.67;53.97
65040;HTU21D;51606;45.000;38.612;2023-02-28T04:21:09;9.71;53.94
65040;HTU21D;51606;45.000;38.612;2023-02-28T04:23:36;9.78;53.90
65040;HTU21D;51606;45.000;38.612;2023-02-28T04:26:03;9.83;53.85
65040;HTU21D;51606;45.000;38.612;2023-02-28T04:28:30;9.88;53.88
65040;HTU21D;51606;45.000;38.612;2023-02-28T04:30:57;9.94;53.84
65040;HTU21D;51606;45.000;38.612;2023-02-28T04:33:24;9.99;53.88
65040;HTU21D;51606;45.000;38.612;2023-02-28T04:36:05;10.05;53.80
65040;HTU21D;51606;45.000;38.612;2023-02-28T04:38:34;10.09;53.82
65040;HTU21D;51606;45.000;38.612;2023-02-28T04:41:01;10.19;53.81
65040;HTU21D;51606;45.000;38.612;2023-02-28T04:43:28;10.24;53.81
65040;HTU21D;51606;45.000;38.612;2023-02-28T04:45:56;10.33;53.79
65040;HTU21D;51606;45.000;38.612;2023-02-28T04:48:30;10.42;53.76
65040;HTU21D;51606;45.000;38.612;2023-02-28T04:51:01;10.53;53.78
65040;HTU21D;51606;45.000;38.612;2023-02-28T04:53:28;10.66;53.78
65040;HTU21D;51606;45.000;38.612;2023-02-28T04:55:56;10.79;53.74
65040;HTU21D;51606;45.000;38.612;2023-02-28T04:58:22;10.89;53.63
65040;HTU21D;51606;45.000;38.612;2023-02-28T05:00:50;11.00;53.58
65040;HTU21D;51606;45.000;38.612;2023-02-28T05:03:16;11.13;53.44
65040;HTU21D;51606;45.000;38.612;2023-02-28T05:05:43;11.23;53.35
65040;HTU21D;51606;45.000;38.612;2023-02-28T05:08:09;11.31;53.36
65040;HTU21D;51606;45.000;38.612;2023-02-28T05:10:36;11.41;53.27
65040;HTU21D;51606;45.000;38.612;2023-02-28T05:13:03;11.54;53.18
65040;HTU21D;51606;45.000;38.612;2023-02-28T05:15:29;11.63;53.14
65040;HTU21D;51606;45.000;38.612;2023-02-28T05:17:56;11.75;53.08
65040;HTU21D;51606;45.000;38.612;2023-02-28T05:20:22;11.90;53.01
65040;HTU21D;51606;45.000;38.612;2023-02-28T05:22:49;12.08;52.94
65040;HTU21D;51606;45.000;38.612;2023-02-28T05:25:19;12.31;52.77
65040;HTU21D;51606;45.000;38.612;2023-02-28T05:27:45;12.53;52.57
65040;HTU21D;51606;45.000;38.612;2023-02-28T05:30:12;12.76;52.43
65040;HTU21D;51606;45.000;38.612;2023-02-28T05:32:39;12.99;52.29
65040;HTU21D;51606;45.000;38.612;2023-02-28T05:35:12;13.18;52.14
65040;HTU21D;51606;45.000;38.612;2023-02-28T05:37:39;13.36;52.06
65040;HTU21D;51606;45.000;38.612;2023-02-28T05:40:06;13.54;52.03
65040;HTU21D;51606;45.000;38.612;2023-02-28T05:42:33;13.73;51.95
65040;HTU21D;51606;45.000;38.612;2023-02-28T05:45:00;13.94;51.83
65040;HTU21D;51606;45.000;38.612;2023-02-28T05:47:26;14.23;51.65
65040;HTU21D;51606;45.000;38.612;2023-02-28T05:49:53;14.50;51.40
65040;HTU21D;51606;45.000;38.612;2023-02-28T05:52:19;14.74;51.24
65040;HTU21D;51606;45.000;38.612;2023-02-28T05:54:46;14.93;51.17
65040;HTU21D;51606;45.000;38.612;2023-02-28T05:57:13;15.22;51.04
65040;HTU21D;51606;45.000;38.612;2023-02-28T05:59:39;15.53;50.76
65040;HTU21D;51606;45.000;38.612;2023-02-28T06:02:10;15.81;50.53
65040;HTU21D;51606;45.000;38.612;2023-02-28T06:04:38;16.05;50.42
65040;HTU21D;51606;45.000;38.612;2023-02-28T06:07:04;16.29;50.21
65040;HTU21D;51606;45.000;38.612;2023-02-28T06:09:30;16.44;50.06
65040;HTU21D;51606;45.000;38.612;2023-02-28T06:12:01;16.49;50.16
65040;HTU21D;51606;45.000;38.612;2023-02-28T06:14:29;16.58;50.25
65040;HTU21D;51606;45.000;38.612;2023-02-28T06:16:57;16.59;50.47
65040;HTU21D;51606;45.000;38.612;2023-02-28T06:19:25;16.65;50.45
65040;HTU21D;51606;45.000;38.612;2023-02-28T06:21:52;16.70;50.50
65040;HTU21D;51606;45.000;38.612;2023-02-28T06:24:20;16.78;50.53
65040;HTU21D;51606;45.000;38.612;2023-02-28T06:26:46;17.11;50.48
65040;HTU21D;51606;45.000;38.612;2023-02-28T06:29:13;17.29;50.22
65040;HTU21D;51606;45.000;38.612;2023-02-28T06:31:43;17.16;50.20
65040;HTU21D;51606;45.000;38.612;2023-02-28T06:34:10;16.94;50.51
65040;HTU21D;51606;45.000;38.612;2023-02-28T06:36:38;16.77;50.74
65040;HTU21D;51606;45.000;38.612;2023-02-28T06:39:06;16.65;50.92
65040;HTU21D;51606;45.000;38.612;2023-02-28T06:41:33;16.50;51.04
65040;HTU21D;51606;45.000;38.612;2023-02-28T06:44:05;16.33;51.20
65040;HTU21D;51606;45.000;38.612;2023-02-28T06:46:32;16.21;51.32
65040;HTU21D;51606;45.000;38.612;2023-02-28T06:48:58;16.18;51.36
65040;HTU21D;51606;45.000;38.612;2023-02-28T06:51:25;16.34;51.31
65040;HTU21D;51606;45.000;38.612;2023-02-28T06:53:52;16.37;51.14
65040;HTU21D;51606;45.000;38.612;2023-02-28T06:56:19;16.58;51.04
65040;HTU21D;51606;45.000;38.612;2023-02-28T06:58:48;16.72;50.88
65040;HTU21D;51606;45.000;38.612;2023-02-28T07:01:15;16.86;50.68
65040;HTU21D;51606;45.000;38.612;2023-02-28T07:03:41;16.88;50.63
65040;HTU21D;51606;45.000;38.612;2023-02-28T07:06:08;16.88;50.63
65040;HTU21D;51606;45.000;38.612;2023-02-28T07:08:35;17.02;50.53
65040;HTU21D;51606;45.000;38.612;2023-02-28T07:11:03;17.06;50.40
65040;HTU21D;51606;45.000;38.612;2023-02-28T07:13:30;16.99;50.41
65040;HTU21D;51606;45.000;38.612;2023-02-28T07:16:02;16.84;50.56
65040;HTU21D;51606;45.000;38.612;2023-02-28T07:18:29;16.67;50.65
65040;HTU21D;51606;45.000;38.612;2023-02-28T07:20:56;16.58;50.80
65040;HTU21D;51606;45.000;38.612;2023-02-28T07:23:23;16.52;50.85
65040;HTU21D;51606;45.000;38.612;2023-02-28T07:25:50;16.59;50.85
65040;HTU21D;51606;45.000;38.612;2023-02-28T07:28:17;16.95;50.55
65040;HTU21D;51606;45.000;38.612;2023-02-28T07:30:44;17.11;50.22
65040;HTU21D;51606;45.000;38.612;2023-02-28T07:33:10;17.06;50.24
65040;HTU21D;51606;45.000;38.612;2023-02-28T07:35:37;17.00;50.35
65040;HTU21D;51606;45.000;38.612;2023-02-28T07:38:03;16.91;50.43
65040;HTU21D;51606;45.000;38.612;2023-02-28T07:40:30;16.84;50.49
65040;HTU21D;51606;45.000;38.612;2023-02-28T07:42:56;16.74;50.62
65040;HTU21D;51606;45.000;38.612;2023-02-28T07:45:25;16.67;50.69
65040;HTU21D;51606;45.000;38.612;2023-02-28T07:47:51;16.58;50.76
65040;HTU21D;51606;45.000;38.612;2023-02-28T07:50:18;16.54;50.88
65040;HTU21D;51606;45.000;38.612;2023-02-28T07:52:44;16.57;50.92
65040;HTU21D;51606;45.000;38.612;2023-02-28T07:55:11;16.57;50.90
65040;HTU21D;51606;45.000;38.612;2023-02-28T07:57:37;16.64;50.92
65040;HTU21D;51606;45.000;38.612;2023-02-28T08:00:06;16.79;50.82
65040;HTU21D;51606;45.000;38.612;2023-02-28T08:02:37;16.98;50.75
65040;HTU21D;51606;45.000;38.612;2023-02-28T08:05:05;17.28;50.49
65040;HTU21D;51606;45.000;38.612;2023-02-28T08:07:32;17.41;50.37
65040;HTU21D;51606;45.000;38.612;2023-02-28T08:09:59;17.58;50.41
65040;HTU21D;51606;45.000;38.612;2023-02-28T08:12:26;17.73;50.35
65040;HTU21D;51606;45.000;38.612;2023-02-28T08:14:52;18.28;50.14
65040;HTU21D;51606;45.000;38.612;2023-02-28T08:17:19;18.54;49.79
65040;HTU21D;51606;45.000;38.612;2023-02-28T08:19:46;18.51;49.86
65040;HTU21D;51606;45.000;38.612;2023-02-28T08:22:13;18.41;50.07
65040;HTU21D;51606;45.000;38.612;2023-02-28T08:24:41;18.39;50.23
65040;HTU21D;51606;45.000;38.612;2023-02-28T08:27:09;18.33;50.34
65040;HTU21D;51606;45.000;38.612;2023-02-28T08:29:37;18.38;50.37
65040;HTU21D;51606;45.000;38.612;2023-02-28T08:32:05;18.58;50.30
65040;HTU21D;51606;45.000;38.612;2023-02-28T08:34:31;18.71;50.15
65040;HTU21D;51606;45.000;38.612;2023-02-28T08:36:58;18.87;50.10
65040;HTU21D;51606;45.000;38.612;2023-02-28T08:39:25;18.93;50.05
65040;HTU21D;51606;45.000;38.612;2023-02-28T08:41:51;18.98;50.11
65040;HTU21D;51606;45.000;38.612;2023-02-28T08:44:17;19.03;50.00
65040;HTU21D;51606;45.000;38.612;2023-02-28T08:46:44;18.93;50.12
65040;HTU21D;51606;45.000;38.612;2023-02-28T08:49:11;18.76;50.32
65040;HTU21D;51606;45.000;38.612;2023-02-28T08:51:38;18.64;50.45
65040;HTU21D;51606;45.000;38.612;2023-02-28T08:54:04;18.43;50.65
65040;HTU21D;51606;45.000;38.612;2023-02-28T08:56:31;18.44;50.81
65040;HTU21D;51606;45.000;38.612;2023-02-28T08:58:57;18.46;50.73
65040;HTU21D;51606;45.000;38.612;2023-02-28T09:01:26;18.38;50.77
65040;HTU21D;51606;45.000;38.612;2023-02-28T09:03:54;18.25;50.85
65040;HTU21D;51606;45.000;38.612;2023-02-28T09:06:23;18.13;50.98
65040;HTU21D;51606;45.000;38.612;2023-02-28T09:08:49;18.04;51.08
65040;HTU21D;51606;45.000;38.612;2023-02-28T09:11:16;17.92;51.16
65040;HTU21D;51606;45.000;38.612;2023-02-28T09:13:45;17.79;51.30
65040;HTU21D;51606;45.000;38.612;2023-02-28T09:16:13;17.61;51.46
65040;HTU21D;51606;45.000;38.612;2023-02-28T09:18:40;17.46;51.66
65040;HTU21D;51606;45.000;38.612;2023-02-28T09:21:08;17.44;51.69
65040;HTU21D;51606;45.000;38.612;2023-02-28T09:23:36;17.37;51.69
65040;HTU21D;51606;45.000;38.612;2023-02-28T09:26:05;17.25;51.79
65040;HTU21D;51606;45.000;38.612;2023-02-28T09:28:31;17.13;51.92
65040;HTU21D;51606;45.000;38.612;2023-02-28T09:30:58;17.04;52.03
65040;HTU21D;51606;45.000;38.612;2023-02-28T09:33:25;16.98;52.11
65040;HTU21D;51606;45.000;38.612;2023-02-28T09:35:58;16.96;52.16
65040;HTU21D;51606;45.000;38.612;2023-02-28T09:38:25;16.88;52.20
65040;HTU21D;51606;45.000;38.612;2023-02-28T09:41:03;16.79;52.32
65040;HTU21D;51606;45.000;38.612;2023-02-28T09:53:55;16.81;52.46
65040;HTU21D;51606;45.000;38.612;2023-02-28T09:56:30;16.91;52.39
65040;HTU21D;51606;45.000;38.612;2023-02-28T09:59:13;16.99;52.37
65040;HTU21D;51606;45.000;38.612;2023-02-28T10:04:40;17.16;52.36
65040;HTU21D;51606;45.000;38.612;2023-02-28T10:10:47;17.45;52.17
65040;HTU21D;51606;45.000;38.612;2023-02-28T10:16:13;17.68;52.04
65040;HTU21D;51606;45.000;38.612;2023-02-28T10:18:50;17.60;52.17
65040;HTU21D;51606;45.000;38.612;2023-02-28T10:21:29;17.48;52.42
65040;HTU21D;51606;45.000;38.612;2023-02-28T10:24:28;17.43;52.66
65040;HTU21D;51606;45.000;38.612;2023-02-28T10:27:00;17.39;52.69
65040;HTU21D;51606;45.000;38.612;2023-02-28T10:29:31;17.46;52.71
65040;HTU21D;51606;45.000;38.612;2023-02-28T10:32:01;17.50;52.72
65040;HTU21D;51606;45.000;38.612;2023-02-28T10:34:28;17.44;52.78
65040;HTU21D;51606;45.000;38.612;2023-02-28T10:36:55;17.37;52.88
65040;HTU21D;51606;45.000;38.612;2023-02-28T10:39:42;17.32;52.94
65040;HTU21D;51606;45.000;38.612;2023-02-28T10:42:21;17.38;52.91
65040;HTU21D;51606;45.000;38.612;2023-02-28T10:45:11;17.51;52.82
65040;HTU21D;51606;45.000;38.612;2023-02-28T10:47:56;17.67;52.65
65040;HTU21D;51606;45.000;38.612;2023-02-28T11:03:58;17.56;52.81
65040;HTU21D;51606;45.000;38.612;2023-02-28T11:06:29;17.53;52.91
65040;HTU21D;51606;45.000;38.612;2023-02-28T11:09:04;17.49;53.01
65040;HTU21D;51606;45.000;38.612;2023-02-28T11:11:43;17.44;53.12
65040;HTU21D;51606;45.000;38.612;2023-02-28T11:14:26;17.41;53.17
65040;HTU21D;51606;45.000;38.612;2023-02-28T11:16:54;17.39;53.21
65040;HTU21D;51606;45.000;38.612;2023-02-28T11:19:45;17.31;53.30
65040;HTU21D;51606;45.000;38.612;2023-02-28T11:22:19;17.23;53.40
65040;HTU21D;51606;45.000;38.612;2023-02-28T11:24:50;17.22;53.46
65040;HTU21D;51606;45.000;38.612;2023-02-28T11:27:43;17.20;53.52
65040;HTU21D;51606;45.000;38.612;2023-02-28T11:30:31;17.18;53.56
65040;HTU21D;51606;45.000;38.612;2023-02-28T11:32:58;17.19;53.55
65040;HTU21D;51606;45.000;38.612;2023-02-28T11:37:53;17.16;53.59
65040;HTU21D;51606;45.000;38.612;2023-02-28T11:40:43;17.16;53.65
65040;HTU21D;51606;45.000;38.612;2023-02-28T11:43:35;17.15;53.64
65040;HTU21D;51606;45.000;38.612;2023-02-28T11:51:34;16.74;54.21
65040;HTU21D;51606;45.000;38.612;2023-02-28T11:54:30;16.57;54.57
65040;HTU21D;51606;45.000;38.612;2023-02-28T12:06:28;16.02;55.07
65040;HTU21D;51606;45.000;38.612;2023-02-28T12:11:56;15.75;55.33
65040;HTU21D;51606;45.000;38.612;2023-02-28T12:23:19;15.45;55.58
65040;HTU21D;51606;45.000;38.612;2023-02-28T12:28:48;15.54;55.42
65040;HTU21D;51606;45.000;38.612;2023-02-28T12:31:21;15.56;55.38
65040;HTU21D;51606;45.000;38.612;2023-02-28T12:33:57;15.55;55.36
65040;HTU21D;51606;45.000;38.612;2023-02-28T12:36:26;15.54;55.40
65040;HTU21D;51606;45.000;38.612;2023-02-28T12:39:01;15.53;55.49
65040;HTU21D;51606;45.000;38.612;2023-02-28T12:41:48;15.55;55.52
65040;HTU21D;51606;45.000;38.612;2023-02-28T12:46:58;15.54;55.53
65040;HTU21D;51606;45.000;38.612;2023-02-28T12:49:31;15.46;55.64
65040;HTU21D;51606;45.000;38.612;2023-02-28T12:52:01;15.38;55.76
65040;HTU21D;51606;45.000;38.612;2023-02-28T12:54:38;15.26;55.87
65040;HTU21D;51606;45.000;38.612;2023-02-28T12:57:27;14.99;56.42
65040;HTU21D;51606;45.000;38.612;2023-02-28T13:00:12;14.66;57.14
65040;HTU21D;51606;45.000;38.612;2023-02-28T13:02:44;14.33;57.86
65040;HTU21D;51606;45.000;38.612;2023-02-28T13:11:04;13.56;59.05
65040;HTU21D;51606;45.000;38.612;2023-02-28T13:13:31;13.39;59.35
65040;HTU21D;51606;45.000;38.612;2023-02-28T13:16:06;13.25;59.50
65040;HTU21D;51606;45.000;38.612;2023-02-28T13:18:37;13.15;59.62
65040;HTU21D;51606;45.000;38.612;2023-02-28T13:21:21;13.05;59.63
65040;HTU21D;51606;45.000;38.612;2023-02-28T13:40:06;12.30;59.73
65040;HTU21D;51606;45.000;38.612;2023-02-28T13:42:46;12.26;59.66
65040;HTU21D;51606;45.000;38.612;2023-02-28T13:47:52;12.17;59.62
65040;HTU21D;51606;45.000;38.612;2023-02-28T13:55:53;11.89;59.80
65040;HTU21D;51606;45.000;38.612;2023-02-28T14:03:46;11.44;60.38
65040;HTU21D;51606;45.000;38.612;2023-02-28T14:11:40;11.12;60.68
65040;HTU21D;51606;45.000;38.612;2023-02-28T14:14:09;11.02;60.81
65040;HTU21D;51606;45.000;38.612;2023-02-28T14:16:44;10.92;60.87
65040;HTU21D;51606;45.000;38.612;2023-02-28T14:21:40;10.66;61.09
65040;HTU21D;51606;45.000;38.612;2023-02-28T14:26:56;10.40;61.47
65040;HTU21D;51606;45.000;38.612;2023-02-28T14:34:53;10.07;61.71
65040;HTU21D;51606;45.000;38.612;2023-02-28T14:37:28;9.98;61.79
65040;HTU21D;51606;45.000;38.612;2023-02-28T14:39:57;9.85;61.86
65040;HTU21D;51606;45.000;38.612;2023-02-28T14:42:29;9.78;61.86
65040;HTU21D;51606;45.000;38.612;2023-02-28T14:44:57;9.70;61.87
65040;HTU21D;51606;45.000;38.612;2023-02-28T14:47:30;9.61;62.06
65040;HTU21D;51606;45.000;38.612;2023-02-28T14:49:59;9.52;62.10
65040;HTU21D;51606;45.000;38.612;2023-02-28T14:52:30;9.46;62.21
65040;HTU21D;51606;45.000;38.612;2023-02-28T14:55:00;9.38;62.28
65040;HTU21D;51606;45.000;38.612;2023-02-28T14:57:32;9.32;62.23
65040;HTU21D;51606;45.000;38.612;2023-02-28T15:00:15;9.25;62.23
65040;HTU21D;51606;45.000;38.612;2023-02-28T15:02:43;9.20;62.19
65040;HTU21D;51606;45.000;38.612;2023-02-28T15:07:36;9.06;62.34
65040;HTU21D;51606;45.000;38.612;2023-02-28T15:10:19;9.01;62.45
65040;HTU21D;51606;45.000;38.612;2023-02-28T15:12:54;8.94;62.42
65040;HTU21D;51606;45.000;38.612;2023-02-28T15:15:33;8.88;62.61
65040;HTU21D;51606;45.000;38.612;2023-02-28T15:18:03;8.79;62.75
65040;HTU21D;51606;45.000;38.612;2023-02-28T15:20:30;8.74;62.89
65040;HTU21D;51606;45.000;38.612;2023-02-28T15:22:59;8.68;62.86
65040;HTU21D;51606;45.000;38.612;2023-02-28T15:25:26;8.60;62.91
65040;HTU21D;51606;45.000;38.612;2023-02-28T15:27:55;8.56;62.89
65040;HTU21D;51606;45.000;38.612;2023-02-28T15:30:32;8.50;63.00
65040;HTU21D;51606;45.000;38.612;2023-02-28T15:35:37;8.35;63.37
65040;HTU21D;51606;45.000;38.612;2023-02-28T15:38:16;8.29;63.50
65040;HTU21D;51606;45.000;38.612;2023-02-28T15:40:53;8.22;63.59
65040;HTU21D;51606;45.000;38.612;2023-02-28T15:43:28;8.16;63.57
65040;HTU21D;51606;45.000;38.612;2023-02-28T15:46:12;8.09;63.64
65040;HTU21D;51606;45.000;38.612;2023-02-28T15:48:50;8.01;63.60
65040;HTU21D;51606;45.000;38.612;2023-02-28T16:02:49;7.52;64.26
65040;HTU21D;51606;45.000;38.612;2023-02-28T16:05:22;7.44;64.44
65040;HTU21D;51606;45.000;38.612;2023-02-28T16:08:14;7.37;64.56
65040;HTU21D;51606;45.000;38.612;2023-02-28T16:10:41;7.30;64.45
65040;HTU21D;51606;45.000;38.612;2023-02-28T16:13:11;7.25;64.44
65040;HTU21D;51606;45.000;38.612;2023-02-28T16:15:42;7.20;64.41
65040;HTU21D;51606;45.000;38.612;2023-02-28T16:18:12;7.18;64.34
65040;HTU21D;51606;45.000;38.612;2023-02-28T16:20:40;7.15;64.43
65040;HTU21D;51606;45.000;38.612;2023-02-28T16:23:07;7.10;64.49
65040;HTU21D;51606;45.000;38.612;2023-02-28T16:25:38;7.05;64.43
65040;HTU21D;51606;45.000;38.612;2023-02-28T16:28:15;7.05;64.32
65040;HTU21D;51606;45.000;38.612;2023-02-28T16:30:43;7.00;64.21
65040;HTU21D;51606;45.000;38.612;2023-02-28T16:33:10;6.96;64.28
65040;HTU21D;51606;45.000;38.612;2023-02-28T16:35:36;6.90;64.43
65040;HTU21D;51606;45.000;38.612;2023-02-28T16:38:03;6.85;64.40
65040;HTU21D;51606;45.000;38.612;2023-02-28T16:40:34;6.81;64.36
65040;HTU21D;51606;45.000;38.612;2023-02-28T16:43:05;6.78;64.35
65040;HTU21D;51606;45.000;38.612;2023-02-28T17:11:20;6.49;64.43
65040;HTU21D;51606;45.000;38.612;2023-02-28T17:13:47;6.46;64.40
65040;HTU21D;51606;45.000;38.612;2023-02-28T17:16:38;6.48;64.37
65040;HTU21D;51606;45.000;38.612;2023-02-28T17:19:13;6.44;64.37
65040;HTU21D;51606;45.000;38.612;2023-02-28T17:21:40;6.42;64.31
65040;HTU21D;51606;45.000;38.612;2023-02-28T17:24:09;6.39;64.65
65040;HTU21D;51606;45.000;38.612;2023-02-28T17:26:41;6.37;64.89
65040;HTU21D;51606;45.000;38.612;2023-02-28T17:29:19;6.35;65.24
65040;HTU21D;51606;45.000;38.612;2023-02-28T17:31:45;6.33;65.14
65040;HTU21D;51606;45.000;38.612;2023-02-28T17:34:12;6.30;65.26
65040;HTU21D;51606;45.000;38.612;2023-02-28T17:36:45;6.26;65.40
65040;HTU21D;51606;45.000;38.612;2023-02-28T17:39:13;6.24;65.45
65040;HTU21D;51606;45.000;38.612;2023-02-28T17:41:46;6.23;65.40
65040;HTU21D;51606;45.000;38.612;2023-02-28T17:44:13;6.22;65.29
65040;HTU21D;51606;45.000;38.612;2023-02-28T17:46:39;6.22;65.17
65040;HTU21D;51606;45.000;38.612;2023-02-28T17:49:06;6.22;65.11
65040;HTU21D;51606;45.000;38.612;2023-02-28T17:51:32;6.22;65.08
65040;HTU21D;51606;45.000;38.612;2023-02-28T17:53:58;6.22;65.08
65040;HTU21D;51606;45.000;38.612;2023-02-28T17:56:26;6.21;65.02
65040;HTU21D;51606;45.000;38.612;2023-02-28T17:58:54;6.21;64.92
65040;HTU21D;51606;45.000;38.612;2023-02-28T18:01:21;6.19;64.88
65040;HTU21D;51606;45.000;38.612;2023-02-28T18:03:48;6.21;64.84
65040;HTU21D;51606;45.000;38.612;2023-02-28T18:06:25;6.21;64.82
65040;HTU21D;51606;45.000;38.612;2023-02-28T18:08:53;6.20;64.73
65040;HTU21D;51606;45.000;38.612;2023-02-28T18:11:22;6.20;64.78
65040;HTU21D;51606;45.000;38.612;2023-02-28T18:13:51;6.20;64.69
65040;HTU21D;51606;45.000;38.612;2023-02-28T18:16:19;6.17;64.73
65040;HTU21D;51606;45.000;38.612;2023-02-28T18:18:47;6.19;64.73
65040;HTU21D;51606;45.000;38.612;2023-02-28T18:21:15;6.20;64.71
65040;HTU21D;51606;45.000;38.612;2023-02-28T18:23:43;6.19;64.68
65040;HTU21D;51606;45.000;38.612;2023-02-28T18:26:18;6.19;64.68
65040;HTU21D;51606;45.000;38.612;2023-02-28T18:28:45;6.17;64.75
65040;HTU21D;51606;45.000;38.612;2023-02-28T18:31:17;6.17;64.72
65040;HTU21D;51606;45.000;38.612;2023-02-28T18:33:47;6.17;64.77
65040;HTU21D;51606;45.000;38.612;2023-02-28T18:36:14;6.15;64.76
65040;HTU21D;51606;45.000;38.612;2023-02-28T18:38:41;6.15;64.88
65040;HTU21D;51606;45.000;38.612;2023-02-28T18:41:09;6.14;64.95
65040;HTU21D;51606;45.000;38.612;2023-02-28T18:43:36;6.13;64.91
65040;HTU21D;51606;45.000;38.612;2023-02-28T18:46:10;6.12;64.88
65040;HTU21D;51606;45.000;38.612;2023-02-28T18:48:37;6.12;64.88
65040;HTU21D;51606;45.000;38.612;2023-02-28T18:53:38;6.09;64.88
65040;HTU21D;51606;45.000;38.612;2023-02-28T18:56:06;6.05;64.97
65040;HTU21D;51606;45.000;38.612;2023-02-28T18:58:34;6.05;65.01
65040;HTU21D;51606;45.000;38.612;2023-02-28T19:01:01;6.05;65.13
65040;HTU21D;51606;45.000;38.612;2023-02-28T19:03:28;6.04;65.12
65040;HTU21D;51606;45.000;38.612;2023-02-28T19:05:56;6.02;65.12
65040;HTU21D;51606;45.000;38.612;2023-02-28T19:08:23;6.02;65.15
65040;HTU21D;51606;45.000;38.612;2023-02-28T19:10:50;6.02;65.14
65040;HTU21D;51606;45.000;38.612;2023-02-28T19:13:17;6.02;65.10
65040;HTU21D;51606;45.000;38.612;2023-02-28T19:15:46;6.02;65.11
65040;HTU21D;51606;45.000;38.612;2023-02-28T19:18:12;6.01;65.15
65040;HTU21D;51606;45.000;38.612;2023-02-28T19:20:39;5.99;65.19
65040;HTU21D;51606;45.000;38.612;2023-02-28T19:23:05;5.98;65.14
65040;HTU21D;51606;45.000;38.612;2023-02-28T19:25:31;5.95;65.15
65040;HTU21D;51606;45.000;38.612;2023-02-28T19:27:58;5.93;65.17
65040;HTU21D;51606;45.000;38.612;2023-02-28T19:30:24;5.92;65.14
65040;HTU21D;51606;45.000;38.612;2023-02-28T19:32:51;5.92;65.19
65040;HTU21D;51606;45.000;38.612;2023-02-28T19:35:17;5.91;65.17
65040;HTU21D;51606;45.000;38.612;2023-02-28T19:37:43;5.91;65.38
65040;HTU21D;51606;45.000;38.612;2023-02-28T19:40:10;5.90;65.37
65040;HTU21D;51606;45.000;38.612;2023-02-28T19:42:38;5.90;65.40
65040;HTU21D;51606;45.000;38.612;2023-02-28T19:45:05;5.86;65.75
65040;HTU21D;51606;45.000;38.612;2023-02-28T19:47:35;5.85;65.85
65040;HTU21D;51606;45.000;38.612;2023-02-28T19:50:01;5.82;65.98
65040;HTU21D;51606;45.000;38.612;2023-02-28T19:52:27;5.80;65.98
65040;HTU21D;51606;45.000;38.612;2023-02-28T19:54:54;5.79;66.21
65040;HTU21D;51606;45.000;38.612;2023-02-28T19:57:20;5.78;66.08
65040;HTU21D;51606;45.000;38.612;2023-02-28T19:59:46;5.77;66.15
65040;HTU21D;51606;45.000;38.612;2023-02-28T20:02:15;5.77;66.11
65040;HTU21D;51606;45.000;38.612;2023-02-28T20:04:45;5.77;66.10
65040;HTU21D;51606;45.000;38.612;2023-02-28T20:07:11;5.76;66.04
65040;HTU21D;51606;45.000;38.612;2023-02-28T20:09:38;5.72;66.08
65040;HTU21D;51606;45.000;38.612;2023-02-28T20:12:05;5.72;66.04
65040;HTU21D;51606;45.000;38.612;2023-02-28T20:14:31;5.71;66.12
65040;HTU21D;51606;45.000;38.612;2023-02-28T20:16:57;5.70;66.14
65040;HTU21D;51606;45.000;38.612;2023-02-28T20:19:24;5.68;66.12
65040;HTU21D;51606;45.000;38.612;2023-02-28T20:21:50;5.66;66.15
65040;HTU21D;51606;45.000;38.612;2023-02-28T20:24:17;5.64;66.20
65040;HTU21D;51606;45.000;38.612;2023-02-28T20:26:43;5.62;66.35
65040;HTU21D;51606;45.000;38.612;2023-02-28T20:29:10;5.61;66.41
65040;HTU21D;51606;45.000;38.612;2023-02-28T20:31:36;5.59;66.56
65040;HTU21D;51606;45.000;38.612;2023-02-28T20:34:04;5.55;66.81
65040;HTU21D;51606;45.000;38.612;2023-02-28T20:36:30;5.54;66.70
65040;HTU21D;51606;45.000;38.612;2023-02-28T20:38:57;5.52;66.61
65040;HTU21D;51606;45.000;38.612;2023-02-28T20:41:23;5.51;66.53
65040;HTU21D;51606;45.000;38.612;2023-02-28T20:43:54;5.51;66.46
65040;HTU21D;51606;45.000;38.612;2023-02-28T20:46:25;5.51;66.37
65040;HTU21D;51606;45.000;38.612;2023-02-28T20:48:52;5.50;66.36
65040;HTU21D;51606;45.000;38.612;2023-02-28T20:51:19;5.50;66.48
65040;HTU21D;51606;45.000;38.612;2023-02-28T20:53:46;5.49;66.68
65040;HTU21D;51606;45.000;38.612;2023-02-28T20:56:15;5.48;66.76
65040;HTU21D;51606;45.000;38.612;2023-02-28T20:58:43;5.47;66.81
65040;HTU21D;51606;45.000;38.612;2023-02-28T21:01:21;5.45;67.07
65040;HTU21D;51606;45.000;38.612;2023-02-28T21:06:20;5.39;67.23
65040;HTU21D;51606;45.000;38.612;2023-02-28T21:08:47;5.39;67.14
65040;HTU21D;51606;45.000;38.612;2023-02-28T21:11:19;5.37;67.17